Time;durP1;ratioP1;P1;durP2;ratioP2;P2;SDS_P1;SDS_P2;PMS_P1;PMS_P2;Temp;Humidity;BMP_temperature;BMP_pressure;BME280_temperature;BME280_humidity;BME280_pressure;Samples;Min_cycle;Max_cycle;Signal;HPM_P1;HPM_P2
2020/12/09 00:01:50;;;;;;;29.58;12.35;;;-3.30;74.40;;;;;;5033546;28;20117;-67
2020/12/09 00:04:17;;;;;;;23.52;9.60;;;-3.40;74.40;;;;;;5035765;28;20108;-66
2020/12/09 00:06:45;;;;;;;39.08;13.90;;;-3.30;74.50;;;;;;5033736;28;20091;-67
2020/12/09 00:09:13;;;;;;;42.97;15.63;;;-3.30;74.60;;;;;;5034917;28;20021;-66
2020/12/09 00:11:39;;;;;;;52.45;18.13;;;-3.30;74.70;;;;;;5033905;28;20403;-66
2020/12/09 00:14:06;;;;;;;36.35;15.32;;;-3.30;74.70;;;;;;5035306;28;20474;-66
2020/12/09 00:16:32;;;;;;;33.58;15.13;;;-3.20;74.70;;;;;;5033871;28;20048;-65
2020/12/09 00:18:59;;;;;;;31.48;14.23;;;-3.20;74.60;;;;;;5033291;28;20112;-67
2020/12/09 00:21:25;;;;;;;43.55;19.45;;;-3.20;74.60;;;;;;5033691;28;20459;-66
2020/12/09 00:23:54;;;;;;;22.40;10.43;;;-3.20;74.60;;;;;;5034872;28;20029;-67
2020/12/09 00:26:21;;;;;;;30.33;14.25;;;-3.20;74.50;;;;;;5033239;28;20096;-67
2020/12/09 00:28:48;;;;;;;17.02;7.57;;;-3.20;74.50;;;;;;5034718;28;20026;-66
2020/12/09 00:31:15;;;;;;;16.05;7.43;;;-3.20;74.50;;;;;;5034450;28;20082;-66
2020/12/09 00:33:42;;;;;;;14.48;8.10;;;-3.20;74.60;;;;;;5035089;28;20053;-67
2020/12/09 00:36:08;;;;;;;15.98;8.50;;;-3.10;74.50;;;;;;5036954;28;20048;-66
2020/12/09 00:38:34;;;;;;;16.95;8.52;;;-3.10;74.50;;;;;;5046289;28;20026;-66
2020/12/09 00:40:59;;;;;;;34.17;15.43;;;-3.10;74.40;;;;;;5034323;28;20034;-67
2020/12/09 00:43:25;;;;;;;17.90;8.50;;;-3.10;74.30;;;;;;5032695;28;20040;-66
2020/12/09 00:45:51;;;;;;;23.75;9.73;;;-3.10;74.30;;;;;;5033272;28;20044;-67
2020/12/09 00:48:16;;;;;;;12.25;6.47;;;-3.10;74.30;;;;;;5034290;28;20036;-67
2020/12/09 00:50:42;;;;;;;12.18;6.38;;;-3.10;74.10;;;;;;5033993;28;20095;-67
2020/12/09 00:53:08;;;;;;;16.45;8.43;;;-3.10;74.00;;;;;;5034144;28;20033;-67
2020/12/09 00:55:34;;;;;;;14.75;6.78;;;-3.10;74.10;;;;;;5052405;28;20056;-67
2020/12/09 00:57:59;;;;;;;16.52;7.32;;;-3.10;74.20;;;;;;5044188;28;20033;-67
2020/12/09 01:00:25;;;;;;;14.00;7.57;;;-3.10;74.00;;;;;;5034229;28;20116;-67
2020/12/09 01:02:51;;;;;;;12.38;6.47;;;-3.10;73.90;;;;;;5033804;28;20551;-67
2020/12/09 01:05:17;;;;;;;17.10;8.88;;;-3.10;73.90;;;;;;5033887;28;20025;-67
2020/12/09 01:07:43;;;;;;;44.45;18.15;;;-3.10;74.10;;;;;;5034327;28;20033;-66
2020/12/09 01:10:10;;;;;;;59.05;22.98;;;-3.10;74.10;;;;;;5032598;28;20066;-66
2020/12/09 01:12:40;;;;;;;62.45;24.85;;;-3.10;74.10;;;;;;5032482;28;20103;-67
2020/12/09 01:15:07;;;;;;;26.73;11.75;;;-3.20;73.90;;;;;;5032670;28;20033;-67
2020/12/09 01:17:33;;;;;;;20.33;10.65;;;-3.20;73.80;;;;;;5032539;28;20079;-67
2020/12/09 01:19:59;;;;;;;20.48;7.50;;;-3.20;73.80;;;;;;5032531;28;20488;-67
2020/12/09 01:22:25;;;;;;;23.92;10.52;;;-3.20;73.90;;;;;;5033530;28;20077;-67
2020/12/09 01:24:51;;;;;;;21.58;10.02;;;-3.20;73.90;;;;;;5032050;28;20033;-67
2020/12/09 01:27:24;;;;;;;21.45;9.82;;;-3.20;74.00;;;;;;5033897;28;20030;-67
2020/12/09 01:29:51;;;;;;;17.42;9.45;;;-3.20;74.00;;;;;;5035878;28;20040;-67
2020/12/09 01:32:17;;;;;;;14.50;7.68;;;-3.20;74.10;;;;;;5032336;28;20087;-67
2020/12/09 01:34:43;;;;;;;15.75;8.18;;;-3.20;74.10;;;;;;5033435;28;20341;-66
2020/12/09 01:37:09;;;;;;;14.05;7.32;;;-3.20;74.10;;;;;;5033394;28;20100;-67
2020/12/09 01:39:35;;;;;;;17.55;8.25;;;-3.20;74.20;;;;;;5033474;28;20049;-67
2020/12/09 01:42:03;;;;;;;19.88;8.35;;;-3.20;74.30;;;;;;5032174;28;20026;-67
2020/12/09 01:44:29;;;;;;;20.65;8.65;;;-3.20;74.30;;;;;;5032145;28;20034;-67
2020/12/09 01:46:56;;;;;;;17.17;9.13;;;-3.20;74.30;;;;;;5033156;28;20177;-67
2020/12/09 01:49:22;;;;;;;15.30;7.88;;;-3.20;74.30;;;;;;5033343;28;20120;-67
2020/12/09 01:51:49;;;;;;;15.73;7.70;;;-3.30;74.20;;;;;;5032916;28;20459;-68
2020/12/09 01:54:15;;;;;;;19.02;8.60;;;-3.30;74.90;;;;;;5032594;28;20022;-67
2020/12/09 01:56:40;;;;;;;17.67;8.88;;;-3.30;74.40;;;;;;5033469;28;20051;-67
2020/12/09 01:59:06;;;;;;;14.52;7.82;;;-3.30;74.50;;;;;;5031829;28;20021;-67
2020/12/09 02:01:32;;;;;;;14.07;6.88;;;-3.30;74.60;;;;;;5031993;28;20428;-67
2020/12/09 02:03:58;;;;;;;20.35;9.15;;;-3.20;74.90;;;;;;5032686;28;20099;-69
2020/12/09 02:06:24;;;;;;;14.20;7.15;;;-3.20;74.90;;;;;;5045385;28;20112;-68
2020/12/09 02:08:50;;;;;;;18.15;7.70;;;-3.20;75.00;;;;;;5033256;28;20026;-67
2020/12/09 02:11:16;;;;;;;17.80;7.70;;;-3.20;75.00;;;;;;5033273;28;20495;-67
2020/12/09 02:13:43;;;;;;;17.25;8.88;;;-3.20;75.30;;;;;;5033025;28;20034;-67
2020/12/09 02:16:09;;;;;;;16.05;8.02;;;-3.20;75.30;;;;;;5033046;28;20026;-67
2020/12/09 02:18:35;;;;;;;34.03;15.20;;;-3.10;75.40;;;;;;5032998;28;20025;-72
2020/12/09 02:21:01;;;;;;;16.25;9.15;;;-3.10;75.50;;;;;;5032987;28;20075;-67
2020/12/09 02:23:27;;;;;;;21.55;10.18;;;-3.10;75.70;;;;;;5032833;28;20026;-67
2020/12/09 02:25:53;;;;;;;18.85;8.55;;;-3.10;75.90;;;;;;5033338;28;20034;-67
2020/12/09 02:28:18;;;;;;;24.38;10.00;;;-3.00;76.10;;;;;;5033030;28;20021;-67
2020/12/09 02:30:44;;;;;;;15.68;8.05;;;-3.00;76.20;;;;;;5032473;28;20036;-67
2020/12/09 02:33:10;;;;;;;15.68;8.30;;;-3.00;76.20;;;;;;5031504;28;20026;-67
2020/12/09 02:35:35;;;;;;;16.48;8.55;;;-3.00;76.20;;;;;;5031444;28;20091;-67
2020/12/09 02:38:02;;;;;;;19.10;10.50;;;-3.00;76.30;;;;;;5033044;28;20018;-67
2020/12/09 02:40:28;;;;;;;18.08;8.00;;;-2.90;76.40;;;;;;5032426;28;20025;-67
2020/12/09 02:42:53;;;;;;;16.42;8.93;;;-2.90;76.40;;;;;;5032811;28;20025;-68
2020/12/09 02:45:19;;;;;;;19.23;9.68;;;-2.90;76.40;;;;;;5035268;28;20026;-67
2020/12/09 02:47:45;;;;;;;22.77;9.45;;;-2.90;76.50;;;;;;5043091;28;20052;-67
2020/12/09 02:50:11;;;;;;;16.77;7.60;;;-2.90;77.10;;;;;;5032434;28;20476;-67
2020/12/09 02:52:36;;;;;;;21.48;11.00;;;-2.90;76.70;;;;;;5032520;28;20480;-68
2020/12/09 02:55:03;;;;;;;17.70;8.65;;;-2.90;76.70;;;;;;5032629;28;20060;-67
2020/12/09 02:57:28;;;;;;;20.70;9.77;;;-2.90;76.90;;;;;;5032507;28;20096;-67
2020/12/09 02:59:54;;;;;;;19.80;8.85;;;-2.90;76.90;;;;;;5032998;28;20112;-67
2020/12/09 03:02:20;;;;;;;23.27;10.98;;;-2.90;77.10;;;;;;5032566;28;20049;-67
2020/12/09 03:04:45;;;;;;;23.20;12.15;;;-2.90;77.10;;;;;;5032161;28;20030;-67
2020/12/09 03:07:11;;;;;;;25.13;10.52;;;-2.90;77.10;;;;;;5035603;28;20057;-67
2020/12/09 03:09:37;;;;;;;24.83;10.40;;;-2.90;77.10;;;;;;5036368;28;20040;-67
2020/12/09 03:12:02;;;;;;;17.83;7.78;;;-2.90;77.10;;;;;;5036471;28;20468;-66
2020/12/09 03:14:28;;;;;;;20.80;8.48;;;-2.90;77.20;;;;;;5036000;28;20072;-66
2020/12/09 03:16:54;;;;;;;15.23;7.68;;;-2.90;77.10;;;;;;5035877;28;20380;-66
2020/12/09 03:19:19;;;;;;;17.30;8.65;;;-2.90;77.40;;;;;;5035748;28;20026;-66
2020/12/09 03:21:45;;;;;;;20.20;9.50;;;-2.90;77.20;;;;;;5035827;28;20124;-66
2020/12/09 03:24:11;;;;;;;22.40;11.15;;;-2.90;77.30;;;;;;5036218;28;20075;-67
2020/12/09 03:26:37;;;;;;;19.45;8.98;;;-2.90;77.50;;;;;;5035576;28;20022;-67
2020/12/09 03:29:03;;;;;;;19.50;9.88;;;-2.90;77.50;;;;;;5036186;28;20120;-66
2020/12/09 03:31:29;;;;;;;20.90;10.40;;;-2.90;77.50;;;;;;5035689;28;20029;-67
2020/12/09 03:33:55;;;;;;;21.40;9.60;;;-2.80;77.80;;;;;;5034569;28;20029;-67
2020/12/09 03:36:20;;;;;;;19.73;10.23;;;-2.80;77.80;;;;;;5035465;28;20022;-67
2020/12/09 03:38:46;;;;;;;15.98;8.90;;;-2.80;77.80;;;;;;5043246;28;20071;-67
2020/12/09 03:41:12;;;;;;;18.33;9.45;;;-2.80;78.00;;;;;;5041933;28;20029;-67
2020/12/09 03:43:37;;;;;;;21.25;10.38;;;-2.80;78.10;;;;;;5035727;28;20034;-67
2020/12/09 03:46:03;;;;;;;16.48;9.05;;;-2.80;78.10;;;;;;5035490;28;20030;-67
2020/12/09 03:48:29;;;;;;;19.88;9.60;;;-2.80;78.20;;;;;;5033834;28;20021;-67
2020/12/09 03:50:55;;;;;;;20.50;10.35;;;-2.80;78.20;;;;;;5035343;28;20045;-67
2020/12/09 03:53:21;;;;;;;20.67;9.68;;;-2.80;78.30;;;;;;5035210;28;20033;-67
2020/12/09 03:55:48;;;;;;;21.27;11.77;;;-2.80;78.40;;;;;;5035578;28;20026;-67
2020/12/09 03:58:14;;;;;;;22.73;10.57;;;-2.80;78.40;;;;;;5034251;28;20031;-67
2020/12/09 04:00:40;;;;;;;17.65;9.63;;;-2.70;78.60;;;;;;5035220;28;20116;-67
2020/12/09 04:03:06;;;;;;;25.45;10.73;;;-2.70;78.50;;;;;;5035225;28;20156;-67
2020/12/09 04:05:32;;;;;;;21.40;10.55;;;-2.70;78.60;;;;;;5035270;28;20459;-67
2020/12/09 04:07:57;;;;;;;17.23;8.80;;;-2.70;78.60;;;;;;5035322;28;20472;-68
2020/12/09 04:10:23;;;;;;;23.20;10.35;;;-2.80;78.50;;;;;;5033194;28;20036;-67
2020/12/09 04:12:49;;;;;;;36.67;13.85;;;-2.80;78.40;;;;;;5033714;28;20463;-67
2020/12/09 04:15:14;;;;;;;49.63;20.08;;;-2.80;78.60;;;;;;5033797;28;20140;-67
2020/12/09 04:17:40;;;;;;;20.33;10.88;;;-2.80;78.60;;;;;;5032500;28;20029;-67
2020/12/09 04:20:07;;;;;;;21.98;11.80;;;-2.80;78.70;;;;;;5033919;28;20036;-67
2020/12/09 04:22:33;;;;;;;13.95;7.43;;;-2.80;78.80;;;;;;5034885;28;20021;-67
2020/12/09 04:25:00;;;;;;;24.42;10.30;;;-2.80;78.80;;;;;;5034670;28;20061;-67
2020/12/09 04:27:25;;;;;;;16.73;9.25;;;-2.80;78.80;;;;;;5034541;28;20036;-67
2020/12/09 04:29:51;;;;;;;18.98;10.82;;;-2.80;78.80;;;;;;5034545;28;20021;-67
2020/12/09 04:32:17;;;;;;;24.58;12.15;;;-2.80;78.90;;;;;;5034871;28;20056;-66
2020/12/09 04:34:43;;;;;;;24.42;11.98;;;-2.80;79.00;;;;;;5033154;28;20029;-66
2020/12/09 04:37:10;;;;;;;18.33;9.15;;;-2.80;79.20;;;;;;5033297;28;20104;-66
2020/12/09 04:39:36;;;;;;;22.90;9.93;;;-2.80;79.20;;;;;;5032994;28;20025;-66
2020/12/09 04:42:02;;;;;;;29.15;13.00;;;-2.80;79.20;;;;;;5033303;28;20024;-68
2020/12/09 04:44:27;;;;;;;27.90;13.52;;;-2.80;79.30;;;;;;5033948;28;20529;-68
2020/12/09 04:46:53;;;;;;;21.52;9.82;;;-2.80;79.50;;;;;;5036511;28;20028;-67
2020/12/09 04:49:23;;;;;;;20.45;10.70;;;-2.80;79.50;;;;;;5036372;28;20021;-68
2020/12/09 04:52:04;;;;;;;22.35;10.52;;;-2.80;79.50;;;;;;5037368;28;20083;-67
2020/12/09 04:54:41;;;;;;;26.85;12.57;;;-2.80;79.70;;;;;;5040573;28;20033;-67
2020/12/09 04:57:39;;;;;;;19.17;9.55;;;-2.80;79.80;;;;;;5051930;28;20475;-67
2020/12/09 05:00:10;;;;;;;15.57;9.00;;;-2.70;79.90;;;;;;5046840;28;20033;-66
2020/12/09 05:02:53;;;;;;;19.92;10.35;;;-2.80;79.70;;;;;;5045689;28;20099;-70
2020/12/09 05:05:21;;;;;;;23.75;11.00;;;-2.80;79.90;;;;;;5049790;28;20092;-68
2020/12/09 05:07:52;;;;;;;21.85;10.85;;;-2.70;80.00;;;;;;5045506;28;20076;-68
2020/12/09 05:10:23;;;;;;;32.10;12.98;;;-2.70;80.10;;;;;;5047085;28;20028;-67
2020/12/09 05:12:53;;;;;;;24.58;12.13;;;-2.70;80.30;;;;;;5044986;28;20391;-67
2020/12/09 05:15:23;;;;;;;21.35;10.55;;;-2.70;80.40;;;;;;5046670;28;20083;-68
2020/12/09 05:18:01;;;;;;;28.05;14.25;;;-2.70;80.50;;;;;;5045260;28;20021;-67
2020/12/09 05:20:30;;;;;;;29.55;12.88;;;-2.70;80.70;;;;;;5051570;28;20592;-67
2020/12/09 05:22:57;;;;;;;27.42;12.20;;;-2.70;80.70;;;;;;5050624;28;20032;-67
2020/12/09 05:25:24;;;;;;;22.58;11.20;;;-2.60;80.80;;;;;;5046642;28;20025;-69
2020/12/09 05:27:51;;;;;;;23.85;12.43;;;-2.60;80.90;;;;;;5046373;28;20479;-66
2020/12/09 05:30:41;;;;;;;22.25;10.80;;;-2.60;80.90;;;;;;5051498;28;20021;-68
2020/12/09 05:33:08;;;;;;;20.90;10.48;;;-2.60;80.90;;;;;;5046801;28;20025;-67
2020/12/09 05:35:34;;;;;;;22.38;11.00;;;-2.60;81.50;;;;;;5047287;28;20056;-67
2020/12/09 05:38:27;;;;;;;32.70;15.38;;;-2.60;81.00;;;;;;5049735;28;20025;-67
2020/12/09 05:40:54;;;;;;;32.88;13.40;;;-2.60;81.20;;;;;;5042769;28;20121;-67
2020/12/09 05:43:20;;;;;;;34.55;16.02;;;-2.60;81.30;;;;;;5035753;28;20033;-67
2020/12/09 05:45:46;;;;;;;26.10;10.88;;;-2.60;81.40;;;;;;5048762;28;20104;-66
2020/12/09 05:48:20;;;;;;;39.53;17.40;;;-2.60;81.40;;;;;;5046525;28;20016;-67
2020/12/09 05:50:50;;;;;;;34.97;14.63;;;-2.60;81.50;;;;;;5047690;28;20104;-67
2020/12/09 05:53:24;;;;;;;31.48;16.85;;;-2.50;81.60;;;;;;5039493;28;20166;-68
2020/12/09 05:55:57;;;;;;;39.45;21.98;;;-2.50;81.70;;;;;;5033052;28;20666;-68
2020/12/09 05:58:29;;;;;;;23.48;11.43;;;-2.50;81.70;;;;;;5035207;28;20033;-69
2020/12/09 06:01:12;;;;;;;28.30;13.32;;;-2.50;81.80;;;;;;5036455;28;20495;-71
2020/12/09 06:03:42;;;;;;;27.95;12.20;;;-2.50;81.80;;;;;;5043044;28;20049;-67
2020/12/09 06:06:11;;;;;;;32.88;14.55;;;-2.50;81.80;;;;;;5043313;28;20076;-67
2020/12/09 06:08:38;;;;;;;43.25;17.77;;;-2.40;81.90;;;;;;5041090;28;20076;-67
2020/12/09 06:11:04;;;;;;;58.35;21.90;;;-2.40;81.90;;;;;;5041480;28;20094;-67
2020/12/09 06:13:34;;;;;;;35.60;15.10;;;-2.40;82.00;;;;;;5037874;28;20468;-67
2020/12/09 06:16:05;;;;;;;44.03;17.65;;;-2.40;82.10;;;;;;5037360;28;20025;-67
2020/12/09 06:18:32;;;;;;;50.45;21.65;;;-2.40;82.20;;;;;;5036539;28;20120;-68
2020/12/09 06:20:59;;;;;;;34.92;13.77;;;-2.40;82.30;;;;;;5035652;28;20025;-67
2020/12/09 06:23:27;;;;;;;32.65;14.25;;;-2.30;82.20;;;;;;5039997;28;20431;-67
2020/12/09 06:25:57;;;;;;;24.52;12.43;;;-2.30;82.10;;;;;;5049294;28;20029;-67
2020/12/09 06:28:25;;;;;;;29.98;13.73;;;-2.30;82.10;;;;;;5044225;28;20045;-67
2020/12/09 06:30:53;;;;;;;28.10;14.00;;;-2.30;82.00;;;;;;5044517;28;20048;-67
2020/12/09 06:33:32;;;;;;;26.30;13.40;;;-2.30;82.20;;;;;;5035718;28;20083;-66
2020/12/09 06:36:21;;;;;;;32.25;14.15;;;-2.30;82.10;;;;;;5043975;28;20017;-66
2020/12/09 06:39:08;;;;;;;27.33;12.57;;;-2.30;82.00;;;;;;5060958;28;20041;-67
2020/12/09 06:42:00;;;;;;;35.08;16.33;;;-2.20;82.20;;;;;;5051411;28;20029;-66
2020/12/09 06:44:30;;;;;;;28.45;13.38;;;-2.20;82.20;;;;;;5049632;28;20041;-66
2020/12/09 06:46:57;;;;;;;28.90;13.00;;;-2.20;82.20;;;;;;5045979;28;20105;-66
2020/12/09 06:49:29;;;;;;;29.30;14.60;;;-2.20;82.30;;;;;;5044333;28;20053;-66
2020/12/09 06:52:28;;;;;;;27.08;15.45;;;-2.20;82.30;;;;;;5051704;28;20033;-66
2020/12/09 06:54:54;;;;;;;34.63;17.42;;;-2.20;82.40;;;;;;5054767;28;20052;-67
2020/12/09 06:57:33;;;;;;;39.67;15.68;;;-2.20;82.40;;;;;;5045304;28;20025;-66
2020/12/09 07:00:18;;;;;;;30.95;13.93;;;-2.10;82.50;;;;;;5060816;28;20063;-67
2020/12/09 07:02:46;;;;;;;32.05;16.05;;;-2.10;82.50;;;;;;5045762;28;20045;-67
2020/12/09 07:05:13;;;;;;;27.70;14.73;;;-2.10;82.60;;;;;;5038542;28;20116;-67
2020/12/09 07:07:51;;;;;;;39.60;16.52;;;-2.10;82.80;;;;;;5049409;28;20171;-68
2020/12/09 07:10:20;;;;;;;35.95;18.40;;;-2.00;82.70;;;;;;5050583;28;20029;-67
2020/12/09 07:12:48;;;;;;;42.00;20.83;;;-2.00;83.30;;;;;;5050536;28;20475;-67
2020/12/09 07:15:14;;;;;;;96.85;36.15;;;-2.00;82.80;;;;;;5035737;28;20020;-67
2020/12/09 07:17:40;;;;;;;65.32;27.85;;;-1.90;83.00;;;;;;5044367;28;20040;-67
2020/12/09 07:20:06;;;;;;;62.80;27.67;;;-1.90;83.00;;;;;;5036580;28;20080;-68
2020/12/09 07:22:32;;;;;;;58.60;24.25;;;-1.80;83.10;;;;;;5045441;28;20034;-68
2020/12/09 07:24:58;;;;;;;52.28;22.42;;;-1.80;83.00;;;;;;5037310;28;20028;-68
2020/12/09 07:27:26;;;;;;;35.25;14.02;;;-1.80;82.80;;;;;;5040839;28;20083;-66
2020/12/09 07:29:55;;;;;;;37.83;18.30;;;-1.80;82.80;;;;;;5037222;28;20140;-67
2020/12/09 07:32:22;;;;;;;46.45;19.77;;;-1.80;82.80;;;;;;5060403;28;20450;-67
2020/12/09 07:35:08;;;;;;;34.95;13.57;;;-1.80;82.80;;;;;;5041579;28;20104;-66
2020/12/09 07:37:38;;;;;;;36.47;15.80;;;-1.80;82.80;;;;;;5039884;28;20475;-67
2020/12/09 07:40:16;;;;;;;37.83;15.57;;;-1.80;82.70;;;;;;5041508;28;20035;-66
2020/12/09 07:42:42;;;;;;;33.03;15.43;;;-1.90;82.80;;;;;;5039952;28;20116;-67
2020/12/09 07:45:15;;;;;;;30.48;13.43;;;-2.00;82.90;;;;;;5050933;28;20029;-66
2020/12/09 07:47:41;;;;;;;44.78;19.40;;;-2.00;83.00;;;;;;5040242;28;20387;-67
2020/12/09 07:50:08;;;;;;;50.30;20.90;;;-2.00;83.20;;;;;;5037737;28;20029;-65
2020/12/09 07:52:40;;;;;;;30.95;14.82;;;-2.00;83.50;;;;;;5044211;28;20052;-65
2020/12/09 07:55:15;;;;;;;43.17;21.88;;;-2.00;83.70;;;;;;5052773;28;20479;-66
2020/12/09 07:57:41;;;;;;;36.45;18.27;;;-2.00;83.70;;;;;;5043776;28;20033;-66
2020/12/09 08:00:13;;;;;;;40.20;18.40;;;-1.90;83.90;;;;;;5035517;28;20059;-66
2020/12/09 08:02:40;;;;;;;46.78;20.60;;;-1.90;84.10;;;;;;5046391;28;20049;-65
2020/12/09 08:05:23;;;;;;;79.93;32.83;;;-1.90;84.00;;;;;;5045660;28;20032;-70
2020/12/09 08:07:52;;;;;;;37.60;15.52;;;-1.90;84.10;;;;;;5046274;28;20411;-73
2020/12/09 08:10:22;;;;;;;44.63;20.67;;;-1.90;84.00;;;;;;5038975;28;20033;-69
2020/12/09 08:12:48;;;;;;;44.75;20.17;;;-1.90;84.10;;;;;;5039018;28;20026;-66
2020/12/09 08:15:14;;;;;;;42.35;19.52;;;-1.90;84.40;;;;;;5044720;28;20476;-66
2020/12/09 08:17:46;;;;;;;48.28;25.60;;;-1.80;84.50;;;;;;5039850;28;20063;-68
2020/12/09 08:20:14;;;;;;;39.47;16.38;;;-1.70;84.70;;;;;;5044811;28;20032;-66
2020/12/09 08:22:57;;;;;;;50.38;21.55;;;-1.70;84.20;;;;;;5036948;28;20029;-67
2020/12/09 08:25:25;;;;;;;47.20;21.55;;;-1.70;84.00;;;;;;5047390;28;20037;-68
2020/12/09 08:27:52;;;;;;;73.03;31.33;;;-1.70;84.10;;;;;;5056312;28;20033;-67
2020/12/09 08:30:23;;;;;;;56.25;27.10;;;-1.70;84.90;;;;;;5037524;28;20043;-66
2020/12/09 08:33:11;;;;;;;40.33;18.33;;;-1.70;84.40;;;;;;5049488;28;20040;-66
2020/12/09 08:35:51;;;;;;;33.30;16.95;;;-1.70;84.30;;;;;;5032165;28;20080;-67
2020/12/09 08:38:41;;;;;;;45.80;24.10;;;-1.70;84.00;;;;;;5033032;28;20100;-66
2020/12/09 08:41:09;;;;;;;40.80;19.05;;;-1.70;84.10;;;;;;5033729;28;20037;-66
2020/12/09 08:43:36;;;;;;;26.20;13.95;;;-1.60;84.20;;;;;;5034059;28;20037;-65
2020/12/09 08:46:04;;;;;;;44.15;18.80;;;-1.60;83.90;;;;;;5033011;28;20017;-65
2020/12/09 08:48:32;;;;;;;39.33;17.30;;;-1.60;83.80;;;;;;5032707;28;20028;-65
2020/12/09 08:51:01;;;;;;;31.30;14.07;;;-1.60;83.90;;;;;;5033747;28;20497;-65
2020/12/09 08:56:30;;;;;;;49.80;20.20;;;-1.60;83.90;;;;;;5034111;28;20029;-66
2020/12/09 08:58:57;;;;;;;40.00;15.75;;;-1.70;83.50;;;;;;5033862;28;20037;-66
2020/12/09 09:01:22;;;;;;;33.53;15.00;;;-1.70;83.60;;;;;;5033086;28;20479;-66
2020/12/09 09:03:53;;;;;;;74.32;31.27;;;-1.80;83.40;;;;;;5032056;28;20053;-65
2020/12/09 09:06:19;;;;;;;46.00;18.75;;;-1.90;83.30;;;;;;5034262;28;20033;-65
2020/12/09 09:08:45;;;;;;;31.70;15.30;;;-1.90;83.60;;;;;;5033607;28;20018;-66
2020/12/09 09:11:10;;;;;;;28.98;12.98;;;-1.90;84.00;;;;;;5033762;28;20028;-65
2020/12/09 09:13:36;;;;;;;46.30;16.75;;;-1.90;84.00;;;;;;5033649;28;20029;-65
2020/12/09 09:16:07;;;;;;;32.13;13.02;;;-1.90;84.10;;;;;;5033752;28;20025;-66
2020/12/09 09:18:34;;;;;;;35.92;14.48;;;-1.90;84.20;;;;;;5032610;28;20049;-65
2020/12/09 09:21:03;;;;;;;35.78;13.68;;;-1.90;84.10;;;;;;5033456;28;20479;-66
2020/12/09 09:23:29;;;;;;;27.35;12.25;;;-1.90;83.90;;;;;;5033732;28;20079;-65
2020/12/09 09:25:55;;;;;;;30.08;13.65;;;-1.90;83.90;;;;;;5033691;28;20033;-66
2020/12/09 09:28:20;;;;;;;31.35;15.35;;;-1.90;84.00;;;;;;5033381;28;20017;-66
2020/12/09 09:30:46;;;;;;;37.58;15.50;;;-1.90;84.10;;;;;;5033377;28;20052;-66
2020/12/09 09:33:12;;;;;;;43.35;18.40;;;-1.90;84.30;;;;;;5033323;28;20112;-66
2020/12/09 09:35:38;;;;;;;29.90;12.65;;;-1.90;84.40;;;;;;5033632;28;20033;-66
2020/12/09 09:38:04;;;;;;;34.97;14.00;;;-1.90;84.20;;;;;;5033415;28;20415;-66
2020/12/09 09:40:29;;;;;;;36.10;13.70;;;-1.90;84.20;;;;;;5032186;28;20080;-66
2020/12/09 09:42:55;;;;;;;31.88;14.30;;;-1.90;84.20;;;;;;5033440;28;20080;-67
2020/12/09 09:45:23;;;;;;;44.10;18.65;;;-1.90;84.30;;;;;;5033234;28;20464;-67
2020/12/09 09:47:48;;;;;;;36.60;15.52;;;-1.90;84.50;;;;;;5033420;28;20059;-66
2020/12/09 09:50:14;;;;;;;44.50;17.92;;;-1.80;84.40;;;;;;5032910;28;20025;-66
2020/12/09 09:52:40;;;;;;;37.05;16.15;;;-1.90;84.10;;;;;;5033043;28;20098;-68
2020/12/09 09:55:06;;;;;;;42.42;17.10;;;-1.90;84.10;;;;;;5031546;28;20029;-66
2020/12/09 09:57:36;;;;;;;41.58;14.23;;;-1.90;84.10;;;;;;5033304;28;20025;-66
2020/12/09 10:00:06;;;;;;;34.58;14.30;;;-1.90;84.10;;;;;;5033333;28;20022;-66
2020/12/09 10:02:32;;;;;;;37.65;15.88;;;-2.00;84.00;;;;;;5033459;28;20136;-66
2020/12/09 10:04:58;;;;;;;46.70;18.85;;;-2.00;84.00;;;;;;5031839;28;20451;-66
2020/12/09 10:07:24;;;;;;;53.00;22.17;;;-2.00;84.10;;;;;;5031530;28;20045;-66
2020/12/09 10:09:49;;;;;;;30.63;14.07;;;-2.00;84.10;;;;;;5032727;28;20034;-66
2020/12/09 10:12:15;;;;;;;36.58;14.27;;;-2.00;84.10;;;;;;5036368;28;20112;-66
2020/12/09 10:14:41;;;;;;;29.40;13.07;;;-2.00;84.10;;;;;;5031670;28;20506;-66
2020/12/09 10:17:06;;;;;;;30.05;13.70;;;-2.00;84.20;;;;;;5031337;28;20112;-65
2020/12/09 10:19:33;;;;;;;27.65;12.45;;;-2.00;84.20;;;;;;5032876;28;20022;-65
2020/12/09 10:22:00;;;;;;;26.08;13.00;;;-2.00;84.20;;;;;;5033008;28;20163;-65
2020/12/09 10:24:26;;;;;;;26.50;11.73;;;-2.00;84.10;;;;;;5032613;28;20376;-66
2020/12/09 10:26:52;;;;;;;33.40;15.13;;;-2.10;84.00;;;;;;5032703;28;20021;-66
2020/12/09 10:29:17;;;;;;;34.45;14.13;;;-2.10;84.30;;;;;;5031338;28;20033;-66
2020/12/09 10:31:46;;;;;;;37.40;16.70;;;-2.10;84.40;;;;;;5032584;28;20036;-66
2020/12/09 10:34:15;;;;;;;39.15;16.75;;;-2.10;84.30;;;;;;5031668;28;20083;-66
2020/12/09 10:36:48;;;;;;;29.80;14.13;;;-2.10;84.40;;;;;;5032284;28;20014;-66
2020/12/09 10:39:16;;;;;;;27.77;12.45;;;-2.00;84.40;;;;;;5033023;28;20025;-66
2020/12/09 10:41:42;;;;;;;32.35;14.23;;;-2.00;84.30;;;;;;5031471;28;20025;-66
2020/12/09 10:44:14;;;;;;;30.38;12.80;;;-2.10;84.40;;;;;;5031634;28;20365;-66
2020/12/09 10:46:41;;;;;;;25.02;12.48;;;-2.10;84.30;;;;;;5031183;28;20080;-66
2020/12/09 10:49:09;;;;;;;37.72;14.55;;;-2.10;84.30;;;;;;5032850;28;20100;-66
2020/12/09 10:51:43;;;;;;;35.65;14.15;;;-2.10;84.20;;;;;;5032395;28;20064;-66
2020/12/09 10:54:08;;;;;;;26.95;12.57;;;-2.10;84.30;;;;;;5041044;28;20051;-65
2020/12/09 10:56:34;;;;;;;37.08;15.40;;;-2.10;84.40;;;;;;5037213;28;20491;-68
2020/12/09 10:59:00;;;;;;;34.08;15.00;;;-2.10;84.50;;;;;;5032658;28;20038;-66
2020/12/09 11:01:26;;;;;;;30.77;15.25;;;-2.10;84.60;;;;;;5032635;28;20041;-67
2020/12/09 11:03:55;;;;;;;27.85;14.45;;;-2.10;84.30;;;;;;5031101;28;20079;-67
2020/12/09 11:06:35;;;;;;;37.75;15.60;;;-2.10;84.30;;;;;;5031619;28;20013;-66
2020/12/09 11:09:05;;;;;;;41.90;16.67;;;-2.10;84.30;;;;;;5031135;28;20033;-66
2020/12/09 11:11:31;;;;;;;38.88;15.85;;;-2.10;84.40;;;;;;5031172;28;20442;-66
2020/12/09 11:13:57;;;;;;;44.70;17.40;;;-2.10;84.30;;;;;;5032306;28;20038;-66
2020/12/09 11:16:23;;;;;;;47.42;20.13;;;-2.10;84.40;;;;;;5030510;28;20026;-65
2020/12/09 11:18:53;;;;;;;31.45;15.35;;;-2.10;84.40;;;;;;5030890;28;20028;-66
2020/12/09 11:21:23;;;;;;;42.10;17.25;;;-2.10;84.60;;;;;;5032699;28;20033;-67
2020/12/09 11:23:51;;;;;;;37.42;16.50;;;-2.10;84.70;;;;;;5032568;28;20505;-65
2020/12/09 11:26:17;;;;;;;41.50;17.45;;;-2.00;84.50;;;;;;5031112;28;20117;-65
2020/12/09 11:28:44;;;;;;;43.88;18.35;;;-2.00;84.40;;;;;;5034435;28;20026;-67
2020/12/09 11:31:11;;;;;;;32.55;14.57;;;-2.00;84.40;;;;;;5034556;28;20529;-66
2020/12/09 11:33:36;;;;;;;33.60;14.45;;;-2.00;84.30;;;;;;5034585;28;20033;-65
2020/12/09 11:36:03;;;;;;;33.33;15.10;;;-2.00;84.20;;;;;;5035846;28;20029;-65
2020/12/09 11:38:29;;;;;;;37.50;18.33;;;-2.00;84.20;;;;;;5034448;28;20383;-65
2020/12/09 11:40:55;;;;;;;36.30;16.38;;;-2.00;84.40;;;;;;5035537;28;20439;-66
2020/12/09 11:43:21;;;;;;;47.35;21.13;;;-2.00;84.30;;;;;;5034189;28;20424;-66
2020/12/09 11:45:50;;;;;;;28.48;14.40;;;-2.00;84.10;;;;;;5035482;28;20113;-66
2020/12/09 11:48:16;;;;;;;33.95;15.68;;;-1.90;84.40;;;;;;5035267;28;20037;-66
2020/12/09 11:50:42;;;;;;;31.10;15.27;;;-1.90;84.10;;;;;;5033627;28;20033;-65
2020/12/09 11:53:09;;;;;;;30.20;13.48;;;-1.90;84.20;;;;;;5035425;28;20105;-65
2020/12/09 11:55:35;;;;;;;39.55;18.85;;;-1.90;84.10;;;;;;5033933;28;20034;-66
2020/12/09 11:58:01;;;;;;;38.10;16.52;;;-2.00;84.00;;;;;;5035281;28;20036;-66
2020/12/09 12:00:28;;;;;;;47.92;22.25;;;-1.90;84.00;;;;;;5035246;28;20029;-65
2020/12/09 12:02:54;;;;;;;36.97;18.85;;;-2.00;84.10;;;;;;5035038;28;20080;-65
2020/12/09 12:05:22;;;;;;;38.03;16.90;;;-1.90;84.00;;;;;;5035132;28;20057;-67
2020/12/09 12:07:49;;;;;;;43.80;21.23;;;-1.90;84.00;;;;;;5033755;28;20479;-67
2020/12/09 12:10:14;;;;;;;57.60;26.02;;;-2.00;83.90;;;;;;5033693;28;20029;-66
2020/12/09 12:12:40;;;;;;;50.15;22.95;;;-2.00;84.00;;;;;;5034532;28;20079;-66
2020/12/09 12:15:07;;;;;;;64.75;29.30;;;-2.00;84.00;;;;;;5035504;28;20460;-66
2020/12/09 12:17:33;;;;;;;43.55;20.08;;;-1.90;84.20;;;;;;5035103;28;20029;-66
2020/12/09 12:19:58;;;;;;;37.35;16.10;;;-1.90;84.20;;;;;;5035432;28;20029;-65
2020/12/09 12:22:24;;;;;;;42.35;20.58;;;-1.90;84.20;;;;;;5035145;28;20475;-66
2020/12/09 12:24:50;;;;;;;36.65;16.15;;;-1.90;84.20;;;;;;5034672;28;20075;-66
2020/12/09 12:27:16;;;;;;;37.72;16.45;;;-1.90;84.30;;;;;;5034806;28;20022;-66
2020/12/09 12:29:41;;;;;;;44.35;21.17;;;-1.90;84.20;;;;;;5034893;28;20075;-68
2020/12/09 12:32:07;;;;;;;41.97;18.30;;;-1.90;84.20;;;;;;5033406;28;20464;-65
2020/12/09 12:34:35;;;;;;;41.42;19.15;;;-1.90;84.20;;;;;;5034701;28;20030;-66
2020/12/09 12:37:01;;;;;;;33.95;17.67;;;-1.80;84.20;;;;;;5034708;28;20352;-66